sensor_id;sensor_type;location;lat;lon;timestamp;P1;durP1;ratioP1;P2;durP2;ratioP2
34471;SDS011;20710;49.976;19.836;2024-02-14T00:48:23;54.80;;;27.50;;
34471;SDS011;20710;49.976;19.836;2024-02-14T01:14:43;48.80;;;26.60;;
34471;SDS011;20710;49.976;19.836;2024-02-14T01:48:22;47.30;;;23.90;;
34471;SDS011;20710;49.976;19.836;2024-02-14T02:02:04;47.90;;;23.20;;
34471;SDS011;20710;49.976;19.836;2024-02-14T02:36:40;64.70;;;31.90;;
34471;SDS011;20710;49.976;19.836;2024-02-14T02:49:32;60.80;;;32.50;;
34471;SDS011;20710;49.976;19.836;2024-02-14T02:55:36;60.50;;;31.90;;
34471;SDS011;20710;49.976;19.836;2024-02-14T03:02:44;65.30;;;34.90;;
34471;SDS011;20710;49.976;19.836;2024-02-14T03:08:56;62.80;;;33.40;;
34471;SDS011;20710;49.976;19.836;2024-02-14T03:15:24;61.80;;;31.30;;
34471;SDS011;20710;49.976;19.836;2024-02-14T03:21:49;60.80;;;31.60;;
34471;SDS011;20710;49.976;19.836;2024-02-14T03:27:52;63.80;;;33.10;;
34471;SDS011;20710;49.976;19.836;2024-02-14T03:34:16;64.80;;;34.10;;
34471;SDS011;20710;49.976;19.836;2024-02-14T03:41:02;61.90;;;29.60;;
34471;SDS011;20710;49.976;19.836;2024-02-14T03:47:12;58.30;;;29.60;;
34471;SDS011;20710;49.976;19.836;2024-02-14T03:53:34;66.70;;;32.50;;
34471;SDS011;20710;49.976;19.836;2024-02-14T03:59:36;52.10;;;26.70;;
34471;SDS011;20710;49.976;19.836;2024-02-14T04:13:26;56.70;;;29.60;;
34471;SDS011;20710;49.976;19.836;2024-02-14T04:19:35;56.40;;;26.20;;
34471;SDS011;20710;49.976;19.836;2024-02-14T04:25:38;60.10;;;27.70;;
34471;SDS011;20710;49.976;19.836;2024-02-14T04:31:43;62.10;;;31.40;;
34471;SDS011;20710;49.976;19.836;2024-02-14T04:38:04;60.60;;;30.30;;
34471;SDS011;20710;49.976;19.836;2024-02-14T04:44:06;61.80;;;31.10;;
34471;SDS011;20710;49.976;19.836;2024-02-14T04:59:19;76.20;;;32.80;;
34471;SDS011;20710;49.976;19.836;2024-02-14T05:05:21;80.50;;;38.30;;
34471;SDS011;20710;49.976;19.836;2024-02-14T05:11:23;81.30;;;39.10;;
34471;SDS011;20710;49.976;19.836;2024-02-14T05:17:25;74.70;;;35.70;;
34471;SDS011;20710;49.976;19.836;2024-02-14T05:24:27;75.90;;;39.20;;
34471;SDS011;20710;49.976;19.836;2024-02-14T05:31:15;79.90;;;39.40;;
34471;SDS011;20710;49.976;19.836;2024-02-14T05:38:42;87.00;;;43.00;;
34471;SDS011;20710;49.976;19.836;2024-02-14T05:51:54;89.50;;;41.40;;
34471;SDS011;20710;49.976;19.836;2024-02-14T05:57:57;90.60;;;45.80;;
34471;SDS011;20710;49.976;19.836;2024-02-14T06:04:23;86.50;;;42.60;;
34471;SDS011;20710;49.976;19.836;2024-02-14T06:11:25;81.30;;;40.80;;
34471;SDS011;20710;49.976;19.836;2024-02-14T06:17:26;73.50;;;38.80;;
34471;SDS011;20710;49.976;19.836;2024-02-14T06:24:55;88.60;;;39.90;;
34471;SDS011;20710;49.976;19.836;2024-02-14T06:37:10;76.60;;;37.20;;
34471;SDS011;20710;49.976;19.836;2024-02-14T06:43:36;75.90;;;39.00;;
34471;SDS011;20710;49.976;19.836;2024-02-14T06:50:02;80.50;;;39.40;;
34471;SDS011;20710;49.976;19.836;2024-02-14T06:56:57;98.20;;;50.20;;
34471;SDS011;20710;49.976;19.836;2024-02-14T07:03:54;103.50;;;55.60;;
34471;SDS011;20710;49.976;19.836;2024-02-14T07:10:41;91.10;;;47.70;;
34471;SDS011;20710;49.976;19.836;2024-02-14T07:17:03;112.90;;;56.90;;
34471;SDS011;20710;49.976;19.836;2024-02-14T07:23:06;103.70;;;52.80;;
34471;SDS011;20710;49.976;19.836;2024-02-14T07:29:09;84.60;;;42.00;;
34471;SDS011;20710;49.976;19.836;2024-02-14T07:35:10;57.40;;;30.10;;
34471;SDS011;20710;49.976;19.836;2024-02-14T07:41:13;45.80;;;25.70;;
34471;SDS011;20710;49.976;19.836;2024-02-14T07:47:36;48.00;;;24.80;;
34471;SDS011;20710;49.976;19.836;2024-02-14T07:53:51;56.30;;;28.70;;
34471;SDS011;20710;49.976;19.836;2024-02-14T08:00:55;54.30;;;25.90;;
34471;SDS011;20710;49.976;19.836;2024-02-14T08:07:37;37.60;;;20.80;;
34471;SDS011;20710;49.976;19.836;2024-02-14T08:13:47;41.10;;;21.30;;
34471;SDS011;20710;49.976;19.836;2024-02-14T08:19:49;39.00;;;21.40;;
34471;SDS011;20710;49.976;19.836;2024-02-14T08:26:15;35.10;;;17.10;;
34471;SDS011;20710;49.976;19.836;2024-02-14T08:32:58;28.20;;;16.30;;
34471;SDS011;20710;49.976;19.836;2024-02-14T08:39:00;27.80;;;15.00;;
34471;SDS011;20710;49.976;19.836;2024-02-14T08:45:03;21.20;;;11.90;;
34471;SDS011;20710;49.976;19.836;2024-02-14T08:51:06;18.90;;;10.90;;
34471;SDS011;20710;49.976;19.836;2024-02-14T08:57:32;16.50;;;9.60;;
34471;SDS011;20710;49.976;19.836;2024-02-14T09:04:41;28.40;;;16.30;;
34471;SDS011;20710;49.976;19.836;2024-02-14T09:11:25;22.60;;;8.90;;
34471;SDS011;20710;49.976;19.836;2024-02-14T09:18:11;14.20;;;5.30;;
34471;SDS011;20710;49.976;19.836;2024-02-14T09:24:12;7.90;;;4.30;;
34471;SDS011;20710;49.976;19.836;2024-02-14T09:31:01;3.20;;;1.40;;
34471;SDS011;20710;49.976;19.836;2024-02-14T09:37:33;1.60;;;1.00;;
34471;SDS011;20710;49.976;19.836;2024-02-14T09:43:39;3.40;;;1.60;;
34471;SDS011;20710;49.976;19.836;2024-02-14T09:49:46;3.40;;;1.30;;
34471;SDS011;20710;49.976;19.836;2024-02-14T09:55:55;3.90;;;1.20;;
34471;SDS011;20710;49.976;19.836;2024-02-14T10:01:58;2.00;;;0.80;;
34471;SDS011;20710;49.976;19.836;2024-02-14T10:08:00;2.80;;;1.10;;
34471;SDS011;20710;49.976;19.836;2024-02-14T10:14:53;3.60;;;1.70;;
34471;SDS011;20710;49.976;19.836;2024-02-14T10:20:57;4.80;;;1.70;;
34471;SDS011;20710;49.976;19.836;2024-02-14T10:26:59;5.60;;;1.70;;
34471;SDS011;20710;49.976;19.836;2024-02-14T10:33:02;4.20;;;2.00;;
34471;SDS011;20710;49.976;19.836;2024-02-14T10:39:04;4.90;;;1.80;;
34471;SDS011;20710;49.976;19.836;2024-02-14T10:45:09;7.30;;;2.50;;
34471;SDS011;20710;49.976;19.836;2024-02-14T10:51:12;3.10;;;1.80;;
34471;SDS011;20710;49.976;19.836;2024-02-14T10:57:17;4.40;;;1.90;;
34471;SDS011;20710;49.976;19.836;2024-02-14T11:03:19;4.10;;;2.00;;
34471;SDS011;20710;49.976;19.836;2024-02-14T11:09:21;3.90;;;1.70;;
34471;SDS011;20710;49.976;19.836;2024-02-14T11:15:44;3.10;;;1.30;;
34471;SDS011;20710;49.976;19.836;2024-02-14T11:21:48;5.70;;;2.30;;
34471;SDS011;20710;49.976;19.836;2024-02-14T11:27:51;5.40;;;1.70;;
34471;SDS011;20710;49.976;19.836;2024-02-14T11:33:53;6.20;;;1.70;;
34471;SDS011;20710;49.976;19.836;2024-02-14T11:41:16;3.80;;;1.50;;
34471;SDS011;20710;49.976;19.836;2024-02-14T11:47:51;5.50;;;1.50;;
34471;SDS011;20710;49.976;19.836;2024-02-14T11:53:53;4.60;;;1.60;;
34471;SDS011;20710;49.976;19.836;2024-02-14T11:59:57;3.40;;;1.90;;
34471;SDS011;20710;49.976;19.836;2024-02-14T12:06:01;4.40;;;1.90;;
34471;SDS011;20710;49.976;19.836;2024-02-14T12:12:45;5.40;;;2.60;;
34471;SDS011;20710;49.976;19.836;2024-02-14T12:18:48;3.10;;;2.00;;
34471;SDS011;20710;49.976;19.836;2024-02-14T12:24:50;9.40;;;2.60;;
34471;SDS011;20710;49.976;19.836;2024-02-14T12:31:30;5.50;;;2.10;;
34471;SDS011;20710;49.976;19.836;2024-02-14T12:37:32;5.20;;;2.40;;
34471;SDS011;20710;49.976;19.836;2024-02-14T12:43:35;5.50;;;2.70;;
34471;SDS011;20710;49.976;19.836;2024-02-14T12:49:45;6.60;;;2.50;;
34471;SDS011;20710;49.976;19.836;2024-02-14T12:55:50;5.10;;;2.30;;
34471;SDS011;20710;49.976;19.836;2024-02-14T13:02:07;6.30;;;2.40;;
34471;SDS011;20710;49.976;19.836;2024-02-14T13:08:09;5.60;;;2.80;;
34471;SDS011;20710;49.976;19.836;2024-02-14T13:14:54;8.20;;;2.50;;
34471;SDS011;20710;49.976;19.836;2024-02-14T13:21:07;5.00;;;2.30;;
34471;SDS011;20710;49.976;19.836;2024-02-14T13:27:12;5.90;;;2.20;;
34471;SDS011;20710;49.976;19.836;2024-02-14T13:33:20;5.80;;;3.00;;
34471;SDS011;20710;49.976;19.836;2024-02-14T13:39:31;4.20;;;2.80;;
34471;SDS011;20710;49.976;19.836;2024-02-14T13:45:54;5.50;;;2.80;;
34471;SDS011;20710;49.976;19.836;2024-02-14T13:52:13;11.00;;;4.30;;
34471;SDS011;20710;49.976;19.836;2024-02-14T13:58:54;6.20;;;3.60;;
34471;SDS011;20710;49.976;19.836;2024-02-14T14:04:56;6.30;;;3.50;;
34471;SDS011;20710;49.976;19.836;2024-02-14T14:10:59;5.60;;;3.30;;
34471;SDS011;20710;49.976;19.836;2024-02-14T14:17:01;8.20;;;3.60;;
34471;SDS011;20710;49.976;19.836;2024-02-14T14:23:05;6.90;;;3.20;;
34471;SDS011;20710;49.976;19.836;2024-02-14T14:29:08;6.60;;;3.40;;
34471;SDS011;20710;49.976;19.836;2024-02-14T14:35:32;12.40;;;3.80;;
34471;SDS011;20710;49.976;19.836;2024-02-14T14:41:42;18.80;;;6.60;;
34471;SDS011;20710;49.976;19.836;2024-02-14T14:48:27;13.60;;;5.50;;
34471;SDS011;20710;49.976;19.836;2024-02-14T14:54:32;8.70;;;4.30;;
34471;SDS011;20710;49.976;19.836;2024-02-14T15:00:34;7.60;;;3.90;;
34471;SDS011;20710;49.976;19.836;2024-02-14T15:06:37;9.20;;;4.20;;
34471;SDS011;20710;49.976;19.836;2024-02-14T15:13:04;7.50;;;3.80;;
34471;SDS011;20710;49.976;19.836;2024-02-14T15:19:09;7.40;;;4.00;;
34471;SDS011;20710;49.976;19.836;2024-02-14T15:25:31;5.80;;;3.70;;
34471;SDS011;20710;49.976;19.836;2024-02-14T15:31:34;8.40;;;3.70;;
34471;SDS011;20710;49.976;19.836;2024-02-14T15:38:16;8.40;;;3.40;;
34471;SDS011;20710;49.976;19.836;2024-02-14T15:44:20;13.80;;;6.50;;
34471;SDS011;20710;49.976;19.836;2024-02-14T15:50:42;10.20;;;5.10;;
34471;SDS011;20710;49.976;19.836;2024-02-14T15:57:04;13.50;;;4.20;;
34471;SDS011;20710;49.976;19.836;2024-02-14T16:03:19;9.40;;;3.30;;
34471;SDS011;20710;49.976;19.836;2024-02-14T16:15:57;11.70;;;5.30;;
34471;SDS011;20710;49.976;19.836;2024-02-14T16:22:24;15.30;;;5.80;;
34471;SDS011;20710;49.976;19.836;2024-02-14T16:28:43;26.70;;;11.00;;
34471;SDS011;20710;49.976;19.836;2024-02-14T16:34:48;20.30;;;9.00;;
34471;SDS011;20710;49.976;19.836;2024-02-14T16:41:10;16.80;;;7.50;;
34471;SDS011;20710;49.976;19.836;2024-02-14T16:47:13;17.50;;;9.20;;
34471;SDS011;20710;49.976;19.836;2024-02-14T16:53:23;22.50;;;10.30;;
34471;SDS011;20710;49.976;19.836;2024-02-14T16:59:25;15.00;;;7.90;;
34471;SDS011;20710;49.976;19.836;2024-02-14T17:06:20;22.70;;;10.60;;
34471;SDS011;20710;49.976;19.836;2024-02-14T17:12:48;25.20;;;10.70;;
34471;SDS011;20710;49.976;19.836;2024-02-14T17:19:19;18.10;;;9.50;;
34471;SDS011;20710;49.976;19.836;2024-02-14T17:25:41;21.50;;;10.20;;
34471;SDS011;20710;49.976;19.836;2024-02-14T17:32:29;24.00;;;12.30;;
34471;SDS011;20710;49.976;19.836;2024-02-14T17:45:40;53.30;;;20.70;;
34471;SDS011;20710;49.976;19.836;2024-02-14T17:52:09;60.80;;;25.80;;
34471;SDS011;20710;49.976;19.836;2024-02-14T17:58:15;47.40;;;22.20;;
34471;SDS011;20710;49.976;19.836;2024-02-14T18:04:18;40.60;;;17.80;;
34471;SDS011;20710;49.976;19.836;2024-02-14T18:11:30;29.90;;;15.00;;
34471;SDS011;20710;49.976;19.836;2024-02-14T18:17:34;36.80;;;17.20;;
34471;SDS011;20710;49.976;19.836;2024-02-14T18:23:37;41.30;;;18.10;;
34471;SDS011;20710;49.976;19.836;2024-02-14T18:29:39;51.10;;;21.50;;
34471;SDS011;20710;49.976;19.836;2024-02-14T18:36:23;58.60;;;23.90;;
34471;SDS011;20710;49.976;19.836;2024-02-14T18:42:46;38.30;;;19.70;;
34471;SDS011;20710;49.976;19.836;2024-02-14T18:48:54;45.10;;;21.40;;
34471;SDS011;20710;49.976;19.836;2024-02-14T18:54:57;51.20;;;24.30;;
34471;SDS011;20710;49.976;19.836;2024-02-14T19:01:00;53.00;;;24.90;;
34471;SDS011;20710;49.976;19.836;2024-02-14T19:07:05;58.40;;;24.60;;
34471;SDS011;20710;49.976;19.836;2024-02-14T19:13:11;59.60;;;26.70;;
34471;SDS011;20710;49.976;19.836;2024-02-14T19:20:08;47.10;;;23.40;;
34471;SDS011;20710;49.976;19.836;2024-02-14T19:26:13;47.40;;;21.20;;
34471;SDS011;20710;49.976;19.836;2024-02-14T19:32:20;62.40;;;27.30;;
34471;SDS011;20710;49.976;19.836;2024-02-14T19:38:44;62.40;;;28.60;;
34471;SDS011;20710;49.976;19.836;2024-02-14T19:45:08;81.20;;;28.80;;
34471;SDS011;20710;49.976;19.836;2024-02-14T19:51:10;65.30;;;29.20;;
34471;SDS011;20710;49.976;19.836;2024-02-14T19:57:16;61.90;;;27.30;;
34471;SDS011;20710;49.976;19.836;2024-02-14T20:03:17;83.30;;;38.40;;
34471;SDS011;20710;49.976;19.836;2024-02-14T20:09:24;84.20;;;37.90;;
34471;SDS011;20710;49.976;19.836;2024-02-14T20:27:59;80.40;;;33.40;;
34471;SDS011;20710;49.976;19.836;2024-02-14T20:34:22;71.10;;;30.70;;
34471;SDS011;20710;49.976;19.836;2024-02-14T20:40:59;66.70;;;32.40;;
34471;SDS011;20710;49.976;19.836;2024-02-14T20:47:01;71.80;;;33.70;;
34471;SDS011;20710;49.976;19.836;2024-02-14T20:54:19;77.00;;;35.10;;
34471;SDS011;20710;49.976;19.836;2024-02-14T21:01:05;73.40;;;33.90;;
34471;SDS011;20710;49.976;19.836;2024-02-14T21:07:07;72.10;;;35.50;;
34471;SDS011;20710;49.976;19.836;2024-02-14T21:14:20;64.50;;;33.30;;
34471;SDS011;20710;49.976;19.836;2024-02-14T21:21:03;53.00;;;29.50;;
34471;SDS011;20710;49.976;19.836;2024-02-14T21:27:11;61.50;;;31.30;;
34471;SDS011;20710;49.976;19.836;2024-02-14T21:39:59;73.60;;;34.60;;
34471;SDS011;20710;49.976;19.836;2024-02-14T21:46:03;88.90;;;39.40;;
34471;SDS011;20710;49.976;19.836;2024-02-14T21:52:05;80.00;;;35.80;;
34471;SDS011;20710;49.976;19.836;2024-02-14T22:05:00;63.70;;;32.60;;
34471;SDS011;20710;49.976;19.836;2024-02-14T22:17:53;70.50;;;31.70;;
34471;SDS011;20710;49.976;19.836;2024-02-14T22:25:04;56.10;;;28.40;;
34471;SDS011;20710;49.976;19.836;2024-02-14T22:37:09;52.50;;;26.00;;
34471;SDS011;20710;49.976;19.836;2024-02-14T22:43:15;56.90;;;28.30;;
34471;SDS011;20710;49.976;19.836;2024-02-14T22:49:43;51.00;;;26.70;;
34471;SDS011;20710;49.976;19.836;2024-02-14T22:56:11;50.10;;;25.30;;
34471;SDS011;20710;49.976;19.836;2024-02-14T23:02:18;48.60;;;26.80;;
34471;SDS011;20710;49.976;19.836;2024-02-14T23:08:46;49.50;;;24.90;;
34471;SDS011;20710;49.976;19.836;2024-02-14T23:14:51;50.60;;;26.20;;
34471;SDS011;20710;49.976;19.836;2024-02-14T23:20:56;57.60;;;26.80;;
34471;SDS011;20710;49.976;19.836;2024-02-14T23:27:59;55.70;;;27.90;;
34471;SDS011;20710;49.976;19.836;2024-02-14T23:34:01;67.00;;;32.20;;
34471;SDS011;20710;49.976;19.836;2024-02-14T23:40:06;67.60;;;32.90;;
34471;SDS011;20710;49.976;19.836;2024-02-14T23:46:15;69.90;;;34.20;;
34471;SDS011;20710;49.976;19.836;2024-02-14T23:53:03;78.20;;;38.60;;
34471;SDS011;20710;49.976;19.836;2024-02-14T23:59:43;58.20;;;30.10;;
